Terminal Aerodrome Forecast
Issued by NWS Cleveland, OH

Home | Current Version | Previous Version | Text Only | Print | Product List | Glossary On
Versions: 1 2 3 4 5 6 7 8 9 10 11 12 13 14 15 16
000
FTUS41 KCLE 252342
TAFCAK
TAF
KCAK 252342Z 2600/2624 24008KT P6SM SCT040
     FM260600 26005KT P6SM SCT100
     FM260900 30003KT 3SM BR SCT250
     FM261400 30007KT P6SM SCT040=

USA.gov is the U.S. government's official web portal to all federal, state and local government web resources and services.